Blue Scorpion — IO3479 — position and weather

sailwx.info

Track history (hours):
 
Tides and Currents Weather Stations Pressure Air Temp Water Temp Dewpoint Dewpoint Depression Visibility Wind Speed Wind Dir Waves Ship Positions

Blue Scorpion

Last reported at 2014-Sep-29 06:32 UTC. Time now 2014-Oct-01 10:26 UTC.
Position N 43°52' E 010°15'.

Length 53 m; draft 3.1 m.

Type: Pleasure craft. MMSI: 247064680.

Date/timePositionNaut miles runAvg speedWind from/ knotsBaromVisibWave heightAir tempDewpointWater temp
2014-Sep-29 06:32N 43°52' E 010°15'0 0.0
2014-Sep-29 05:32N 43°52' E 010°15'0 0.0
2014-Sep-29 04:32N 43°52' E 010°14'0 0.0
2014-Sep-29 03:32N 43°52' E 010°15'0 0.0
2014-Sep-29 02:32N 43°52' E 010°15'0 0.0
2014-Sep-29 01:26N 43°52' E 010°15'0 0.0
2014-Sep-29 00:32N 43°52' E 010°14'0 0.0
2014-Sep-28 23:32N 43°52' E 010°14'0 0.0
2014-Sep-28 22:32N 43°52' E 010°14'0 0.0
2014-Sep-28 21:32N 43°52' E 010°15'0 0.0
2014-Sep-28 20:29N 43°52' E 010°14'0 0.0
2014-Sep-28 19:32N 43°52' E 010°14'0 0.0
2014-Sep-28 18:32N 43°52' E 010°14'0 0.0
2014-Sep-28 17:32N 43°52' E 010°14'0 0.0
2014-Sep-28 16:32N 43°52' E 010°15'0 0.0
2014-Sep-28 15:32N 43°52' E 010°15'4 4.5
2014-Sep-28 14:34N 43°53' E 010°09'1313.4
2014-Sep-28 13:33N 43°53' E 009°50'1515.2
2014-Sep-28 12:33N 43°54' E 009°29'1615.7
2014-Sep-28 11:33N 43°53' E 009°07'1615.7
2014-Sep-28 10:33N 43°51' E 008°45'58 7.1
2014-Sep-28 02:21N 43°44' E 007°26'0 0.0
2014-Sep-27 22:26N 43°44' E 007°26'0 0.0
2014-Sep-27 21:32N 43°44' E 007°26'0 0.0
2014-Sep-27 12:17N 43°44' E 007°26'0 0.0
2014-Sep-26 17:08N 43°44' E 007°26'0 0.0
2014-Sep-26 15:32N 43°44' E 007°26'  
2014-Sep-24 04:33N 43°44' E 007°26'0 0.0
2014-Sep-24 03:33N 43°44' E 007°26'0 0.0
2014-Sep-24 02:27N 43°44' E 007°26'0 0.0
2014-Sep-22 23:11N 43°44' E 007°26'0 0.0
2014-Sep-22 20:29N 43°44' E 007°26'0 0.0
2014-Sep-22 19:20N 43°44' E 007°26'0 0.0
2014-Sep-22 17:29N 43°44' E 007°26'0 0.0
2014-Sep-22 16:29N 43°44' E 007°26'0 0.0
2014-Sep-22 15:29N 43°44' E 007°26'0 0.0
2014-Sep-22 14:29N 43°44' E 007°26'0 0.0
2014-Sep-22 13:17N 43°44' E 007°26'0 0.0
2014-Sep-21 10:27N 43°44' E 007°26'0 0.0
2014-Sep-20 18:03N 43°44' E 007°26'0 0.4
2014-Sep-20 17:33N 43°44' E 007°26'5316.1
2014-Sep-20 14:15N 43°51' E 008°39'1116.0
2014-Sep-20 13:33N 43°52' E 008°54'1616.3
2014-Sep-20 12:33N 43°53' E 009°17'1716.5
2014-Sep-20 11:33N 43°53' E 009°40'1616.1
2014-Sep-20 10:33N 43°53' E 010°02'9 9.1
2014-Sep-20 09:33N 43°52' E 010°14'0 0.0
2014-Sep-20 08:34N 43°52' E 010°14'0 0.0
2014-Sep-20 07:33N 43°52' E 010°14'0 0.0
2014-Sep-20 06:33N 43°52' E 010°15'0 0.0
2014-Sep-20 05:33N 43°52' E 010°14'0 0.0
2014-Sep-20 04:33N 43°52' E 010°14'0 0.0
2014-Sep-20 03:30N 43°52' E 010°14'0 0.0
2014-Sep-20 02:33N 43°52' E 010°14'0 0.0
2014-Sep-20 01:33N 43°52' E 010°15'0 0.0
2014-Sep-20 00:33N 43°52' E 010°14'0 0.0
2014-Sep-19 23:33N 43°52' E 010°14'0 0.0
2014-Sep-19 22:33N 43°52' E 010°15'0 0.0
2014-Sep-19 21:33N 43°52' E 010°14'0 0.0
2014-Sep-19 20:33N 43°52' E 010°14'0 0.0
2014-Sep-19 19:33N 43°52' E 010°14'0 0.0
2014-Sep-19 18:30N 43°52' E 010°15'0 0.0
2014-Sep-19 17:33N 43°52' E 010°14'0 0.0
2014-Sep-19 16:33N 43°52' E 010°15'0 0.0
2014-Sep-19 15:32N 43°52' E 010°15'0 0.0
2014-Sep-19 14:32N 43°52' E 010°15'0 0.0
2014-Sep-19 13:32N 43°52' E 010°15'0 0.0
2014-Sep-19 12:32N 43°52' E 010°15'0 0.0
2014-Sep-19 11:32N 43°52' E 010°15'0 0.0
2014-Sep-19 10:29N 43°52' E 010°14'0 0.0
2014-Sep-19 09:29N 43°52' E 010°14'0 0.0
2014-Sep-19 08:32N 43°52' E 010°15'0 0.0
2014-Sep-19 07:32N 43°52' E 010°14'0 0.0
2014-Sep-19 06:32N 43°52' E 010°14'  
Track history (hours):
 
Tides and Currents Weather Stations Pressure Air Temp Water Temp Dewpoint Dewpoint Depression Visibility Wind Speed Wind Dir Waves Ship Positions

Blue Scorpion

Last reported at 2014-Sep-29 06:32 UTC. Time now 2014-Oct-01 10:26 UTC.
Position N 43°52' E 010°15'.

Length 53 m; draft 3.1 m.

Type: Pleasure craft. MMSI: 247064680.

Date/timePositionNaut miles runAvg speedWind from/ knotsBaromVisibWave heightAir tempDewpointWater temp
2014-Sep-29 06:32N 43°52' E 010°15'0 0.0
2014-Sep-29 05:32N 43°52' E 010°15'0 0.0
2014-Sep-29 04:32N 43°52' E 010°14'0 0.0
2014-Sep-29 03:32N 43°52' E 010°15'0 0.0
2014-Sep-29 02:32N 43°52' E 010°15'0 0.0
2014-Sep-29 01:26N 43°52' E 010°15'0 0.0
2014-Sep-29 00:32N 43°52' E 010°14'0 0.0
2014-Sep-28 23:32N 43°52' E 010°14'0 0.0
2014-Sep-28 22:32N 43°52' E 010°14'0 0.0
2014-Sep-28 21:32N 43°52' E 010°15'0 0.0
2014-Sep-28 20:29N 43°52' E 010°14'0 0.0
2014-Sep-28 19:32N 43°52' E 010°14'0 0.0
2014-Sep-28 18:32N 43°52' E 010°14'0 0.0
2014-Sep-28 17:32N 43°52' E 010°14'0 0.0
2014-Sep-28 16:32N 43°52' E 010°15'0 0.0
2014-Sep-28 15:32N 43°52' E 010°15'4 4.5
2014-Sep-28 14:34N 43°53' E 010°09'1313.4
2014-Sep-28 13:33N 43°53' E 009°50'1515.2
2014-Sep-28 12:33N 43°54' E 009°29'1615.7
2014-Sep-28 11:33N 43°53' E 009°07'1615.7
2014-Sep-28 10:33N 43°51' E 008°45'58 7.1
2014-Sep-28 02:21N 43°44' E 007°26'0 0.0
2014-Sep-27 22:26N 43°44' E 007°26'0 0.0
2014-Sep-27 21:32N 43°44' E 007°26'0 0.0
2014-Sep-27 12:17N 43°44' E 007°26'0 0.0
2014-Sep-26 17:08N 43°44' E 007°26'0 0.0
2014-Sep-26 15:32N 43°44' E 007°26'  
2014-Sep-24 04:33N 43°44' E 007°26'0 0.0
2014-Sep-24 03:33N 43°44' E 007°26'0 0.0
2014-Sep-24 02:27N 43°44' E 007°26'0 0.0
2014-Sep-22 23:11N 43°44' E 007°26'0 0.0
2014-Sep-22 20:29N 43°44' E 007°26'0 0.0
2014-Sep-22 19:20N 43°44' E 007°26'0 0.0
2014-Sep-22 17:29N 43°44' E 007°26'0 0.0
2014-Sep-22 16:29N 43°44' E 007°26'0 0.0
2014-Sep-22 15:29N 43°44' E 007°26'0 0.0
2014-Sep-22 14:29N 43°44' E 007°26'0 0.0
2014-Sep-22 13:17N 43°44' E 007°26'0 0.0
2014-Sep-21 10:27N 43°44' E 007°26'0 0.0
2014-Sep-20 18:03N 43°44' E 007°26'0 0.4
2014-Sep-20 17:33N 43°44' E 007°26'5316.1
2014-Sep-20 14:15N 43°51' E 008°39'1116.0
2014-Sep-20 13:33N 43°52' E 008°54'1616.3
2014-Sep-20 12:33N 43°53' E 009°17'1716.5
2014-Sep-20 11:33N 43°53' E 009°40'1616.1
2014-Sep-20 10:33N 43°53' E 010°02'9 9.1
2014-Sep-20 09:33N 43°52' E 010°14'0 0.0
2014-Sep-20 08:34N 43°52' E 010°14'0 0.0
2014-Sep-20 07:33N 43°52' E 010°14'0 0.0
2014-Sep-20 06:33N 43°52' E 010°15'0 0.0
2014-Sep-20 05:33N 43°52' E 010°14'0 0.0
2014-Sep-20 04:33N 43°52' E 010°14'0 0.0
2014-Sep-20 03:30N 43°52' E 010°14'0 0.0
2014-Sep-20 02:33N 43°52' E 010°14'0 0.0
2014-Sep-20 01:33N 43°52' E 010°15'0 0.0
2014-Sep-20 00:33N 43°52' E 010°14'0 0.0
2014-Sep-19 23:33N 43°52' E 010°14'0 0.0
2014-Sep-19 22:33N 43°52' E 010°15'0 0.0
2014-Sep-19 21:33N 43°52' E 010°14'0 0.0
2014-Sep-19 20:33N 43°52' E 010°14'0 0.0
2014-Sep-19 19:33N 43°52' E 010°14'0 0.0
2014-Sep-19 18:30N 43°52' E 010°15'0 0.0
2014-Sep-19 17:33N 43°52' E 010°14'0 0.0
2014-Sep-19 16:33N 43°52' E 010°15'0 0.0
2014-Sep-19 15:32N 43°52' E 010°15'0 0.0
2014-Sep-19 14:32N 43°52' E 010°15'0 0.0
2014-Sep-19 13:32N 43°52' E 010°15'0 0.0
2014-Sep-19 12:32N 43°52' E 010°15'0 0.0
2014-Sep-19 11:32N 43°52' E 010°15'0 0.0
2014-Sep-19 10:29N 43°52' E 010°14'0 0.0
2014-Sep-19 09:29N 43°52' E 010°14'0 0.0
2014-Sep-19 08:32N 43°52' E 010°15'0 0.0
2014-Sep-19 07:32N 43°52' E 010°14'0 0.0
2014-Sep-19 06:32N 43°52' E 010°14'  

Dump ship's entire track history